Time,TemperatureF,DewpointF,PressureIn,WindDirection,WindDirectionDegrees,WindSpeedMPH,WindSpeedGustMPH,Humidity,HourlyPrecipIn,Conditions,Clouds,dailyrainin,SoftwareType,DateUTC
2013-03-29 00:02:00,56.0,39.0,29.96,WNW,290,2.0,2.0,52,0.00,,,-99.99,,2013-03-29 07:02:00,
2013-03-29 00:12:00,56.0,39.0,29.96,WNW,290,2.0,2.0,52,0.00,,,-99.99,,2013-03-29 07:12:00,
2013-03-29 00:22:00,57.0,36.0,29.93,WNW,290,5.0,5.0,46,0.00,,,-99.99,,2013-03-29 07:22:00,
2013-03-29 00:32:00,57.0,36.0,29.93,WNW,290,5.0,5.0,46,0.00,,,-99.99,,2013-03-29 07:32:00,
2013-03-29 00:42:00,57.0,36.0,29.93,WNW,290,5.0,5.0,46,0.00,,,-99.99,,2013-03-29 07:42:00,
2013-03-29 00:52:00,57.0,36.0,29.93,WNW,290,5.0,5.0,46,0.00,,,-99.99,,2013-03-29 07:52:00,
2013-03-29 01:01:00,57.0,36.0,29.92,WNW,290,1.0,1.0,45,0.00,,,-99.99,,2013-03-29 08:01:00,
2013-03-29 01:12:00,57.0,36.0,29.92,WNW,290,1.0,1.0,45,0.00,,,-99.99,,2013-03-29 08:12:00,
2013-03-29 01:22:00,57.0,36.0,29.92,WNW,290,1.0,1.0,45,0.00,,,-99.99,,2013-03-29 08:22:00,
2013-03-29 01:32:00,57.0,34.0,29.92,WNW,290,3.0,5.0,42,0.00,,,-99.99,,2013-03-29 08:32:00,
2013-03-29 01:42:00,57.0,34.0,29.92,WNW,290,3.0,5.0,42,0.00,,,-99.99,,2013-03-29 08:42:00,
2013-03-29 01:53:00,57.0,34.0,29.89,WNW,290,3.0,5.0,41,0.00,,,-99.99,,2013-03-29 08:53:00,
2013-03-29 02:02:00,57.0,34.0,29.89,WNW,290,3.0,5.0,41,0.00,,,-99.99,,2013-03-29 09:02:00,
2013-03-29 02:12:00,57.0,33.0,29.90,WNW,290,1.0,5.0,40,0.00,,,-99.99,,2013-03-29 09:12:00,
2013-03-29 02:22:00,57.0,34.0,29.89,WNW,290,4.0,5.0,41,0.00,,,-99.99,,2013-03-29 09:22:00,
2013-03-29 02:32:00,57.0,34.0,29.89,WNW,290,4.0,5.0,41,0.00,,,-99.99,,2013-03-29 09:32:00,
2013-03-29 02:42:00,57.0,34.0,29.89,WNW,290,4.0,5.0,41,0.00,,,-99.99,,2013-03-29 09:42:00,
2013-03-29 02:52:00,56.0,34.0,29.86,WNW,290,1.0,2.0,43,0.00,,,-99.99,,2013-03-29 09:52:00,
2013-03-29 03:02:00,56.0,34.0,29.86,WNW,290,1.0,2.0,43,0.00,,,-99.99,,2013-03-29 10:02:00,
2013-03-29 03:12:00,56.0,34.0,29.86,WNW,290,1.0,2.0,43,0.00,,,-99.99,,2013-03-29 10:12:00,
2013-03-29 03:22:00,56.0,34.0,29.86,WNW,290,1.0,2.0,43,0.00,,,-99.99,,2013-03-29 10:22:00,
2013-03-29 03:33:00,56.0,35.0,29.86,WNW,290,4.0,6.0,45,0.00,,,-99.99,,2013-03-29 10:33:00,
2013-03-29 03:42:00,56.0,35.0,29.86,WNW,290,4.0,6.0,45,0.00,,,-99.99,,2013-03-29 10:42:00,
2013-03-29 03:53:00,57.0,36.0,29.88,WNW,290,5.0,6.0,45,0.00,,,-99.99,,2013-03-29 10:53:00,
2013-03-29 04:03:00,57.0,36.0,29.88,WNW,290,5.0,6.0,45,0.00,,,-99.99,,2013-03-29 11:03:00,
2013-03-29 04:12:00,57.0,36.0,29.88,WNW,290,5.0,6.0,45,0.00,,,-99.99,,2013-03-29 11:12:00,
2013-03-29 04:23:00,57.0,38.0,29.86,WNW,290,5.0,6.0,48,0.00,,,-99.99,,2013-03-29 11:23:00,
2013-03-29 04:32:00,57.0,38.0,29.86,WNW,290,5.0,6.0,48,0.00,,,-99.99,,2013-03-29 11:32:00,
2013-03-29 05:02:00,57.0,39.0,29.88,WNW,290,7.0,8.0,51,0.00,,,-99.99,,2013-03-29 12:02:00,
2013-03-29 05:22:00,57.0,38.0,29.88,WNW,300,6.0,7.0,48,0.00,,,-99.99,,2013-03-29 12:22:00,
2013-03-29 05:31:00,57.0,37.0,29.88,WNW,300,6.0,7.0,47,0.00,,,-99.99,,2013-03-29 12:31:00,
2013-03-29 05:32:00,57.0,38.0,29.88,WNW,300,6.0,7.0,48,0.00,,,-99.99,,2013-03-29 12:32:00,
2013-03-29 05:52:00,57.0,37.0,29.88,WNW,300,6.0,7.0,47,0.00,,,-99.99,,2013-03-29 12:52:00,
2013-03-29 06:02:00,57.0,37.0,29.88,WNW,300,6.0,7.0,47,0.00,,,-99.99,,2013-03-29 13:02:00,
2013-03-29 14:53:00,65.0,43.0,29.88,SSE,160,17.0,17.0,44,0.00,,,-99.99,,2013-03-29 21:53:00,
2013-03-29 15:03:00,65.0,43.0,29.88,SSE,160,17.0,17.0,44,0.00,,,-99.99,,2013-03-29 22:03:00,
2013-03-29 15:12:00,65.0,43.0,29.88,SSE,160,17.0,17.0,44,0.00,,,-99.99,,2013-03-29 22:12:00,
2013-03-29 15:22:00,64.0,45.0,29.86,SSE,160,6.0,12.0,50,0.00,,,-99.99,,2013-03-29 22:22:00,
2013-03-29 15:33:00,64.0,45.0,29.86,SSE,160,6.0,12.0,50,0.00,,,-99.99,,2013-03-29 22:33:00,
2013-03-29 15:42:00,64.0,45.0,29.86,SSE,160,6.0,12.0,50,0.00,,,-99.99,,2013-03-29 22:42:00,
2013-03-29 15:53:00,64.0,45.0,29.86,SSE,160,6.0,12.0,50,0.00,,,-99.99,,2013-03-29 22:53:00,
2013-03-29 16:02:00,66.0,45.0,29.82,SSW,210,6.0,10.0,47,0.00,,,-99.99,,2013-03-29 23:02:00,
2013-03-29 16:12:00,66.0,45.0,29.82,SSW,210,6.0,10.0,47,0.00,,,-99.99,,2013-03-29 23:12:00,
2013-03-29 16:22:00,66.0,45.0,29.80,North,0,0.0,6.0,46,0.00,,,-99.99,,2013-03-29 23:22:00,
2013-03-29 16:32:00,66.0,45.0,29.80,North,0,0.0,6.0,46,0.00,,,-99.99,,2013-03-29 23:32:00,
2013-03-29 16:42:00,66.0,45.0,29.80,North,0,0.0,6.0,46,0.00,,,-99.99,,2013-03-29 23:42:00,
2013-03-29 16:52:00,66.0,45.0,29.80,North,0,0.0,6.0,46,0.00,,,-99.99,,2013-03-29 23:52:00,
2013-03-29 17:02:00,64.0,45.0,29.83,SW,230,3.0,10.0,50,0.00,,,-99.99,,2013-03-30 00:02:00,
2013-03-29 17:12:00,64.0,45.0,29.83,SW,230,3.0,10.0,50,0.00,,,-99.99,,2013-03-30 00:12:00,
2013-03-29 17:22:00,64.0,45.0,29.83,SW,230,3.0,10.0,50,0.00,,,-99.99,,2013-03-30 00:22:00,
2013-03-29 17:32:00,62.0,43.0,29.85,WSW,250,8.0,12.0,49,0.00,,,-99.99,,2013-03-30 00:32:00,
2013-03-29 17:43:00,62.0,43.0,29.85,WSW,250,8.0,12.0,49,0.00,,,-99.99,,2013-03-30 00:43:00,
2013-03-29 17:53:00,62.0,42.0,29.84,West,260,2.0,10.0,48,0.00,,,-99.99,,2013-03-30 00:53:00,
2013-03-29 18:02:00,62.0,42.0,29.84,West,260,2.0,10.0,48,0.00,,,-99.99,,2013-03-30 01:02:00,
2013-03-29 18:12:00,62.0,42.0,29.84,West,260,2.0,10.0,48,0.00,,,-99.99,,2013-03-30 01:12:00,
2013-03-29 18:22:00,60.0,42.0,29.87,West,260,4.0,11.0,52,0.00,,,-99.99,,2013-03-30 01:22:00,
2013-03-29 18:32:00,60.0,42.0,29.87,West,260,4.0,11.0,52,0.00,,,-99.99,,2013-03-30 01:32:00,
2013-03-29 18:43:00,60.0,42.0,29.87,West,260,4.0,11.0,52,0.00,,,-99.99,,2013-03-30 01:43:00,
2013-03-29 18:52:00,60.0,34.0,29.89,West,270,7.0,11.0,38,0.00,,,-99.99,,2013-03-30 01:52:00,
2013-03-29 19:02:00,60.0,34.0,29.89,West,270,7.0,11.0,38,0.00,,,-99.99,,2013-03-30 02:02:00,
2013-03-29 19:12:00,60.0,34.0,29.89,West,270,7.0,11.0,38,0.00,,,-99.99,,2013-03-30 02:12:00,
2013-03-29 19:22:00,60.0,34.0,29.89,West,270,7.0,11.0,38,0.00,,,-99.99,,2013-03-30 02:22:00,
2013-03-29 19:32:00,59.0,37.0,29.90,North,0,0.0,5.0,43,0.00,,,-99.99,,2013-03-30 02:32:00,
2013-03-29 19:43:00,59.0,37.0,29.90,North,0,0.0,5.0,43,0.00,,,-99.99,,2013-03-30 02:43:00,
2013-03-29 19:53:00,59.0,37.0,29.89,West,270,3.0,6.0,43,0.00,,,-99.99,,2013-03-30 02:53:00,
2013-03-29 20:02:00,59.0,37.0,29.89,West,270,3.0,6.0,43,0.00,,,-99.99,,2013-03-30 03:02:00,
2013-03-29 20:12:00,59.0,37.0,29.89,West,270,3.0,6.0,43,0.00,,,-99.99,,2013-03-30 03:12:00,
2013-03-29 20:22:00,59.0,37.0,29.89,West,270,3.0,6.0,43,0.00,,,-99.99,,2013-03-30 03:22:00,
2013-03-29 20:32:00,59.0,33.0,29.91,West,260,1.0,5.0,37,0.00,,,-99.99,,2013-03-30 03:32:00,
2013-03-29 20:43:00,59.0,33.0,29.91,West,260,1.0,5.0,37,0.00,,,-99.99,,2013-03-30 03:43:00,
2013-03-29 20:53:00,59.0,33.0,29.91,West,260,1.0,5.0,37,0.00,,,-99.99,,2013-03-30 03:53:00,
2013-03-29 21:02:00,59.0,33.0,29.89,West,260,2.0,4.0,37,0.00,,,-99.99,,2013-03-30 04:02:00,
2013-03-29 21:12:00,59.0,33.0,29.89,West,260,2.0,4.0,37,0.00,,,-99.99,,2013-03-30 04:12:00,
2013-03-29 21:23:00,58.0,33.0,29.92,WSW,250,4.0,5.0,38,0.00,,,-99.99,,2013-03-30 04:23:00,
2013-03-29 21:32:00,58.0,33.0,29.92,WSW,250,4.0,5.0,38,0.00,,,-99.99,,2013-03-30 04:32:00,
2013-03-29 21:43:00,58.0,33.0,29.89,WSW,250,3.0,5.0,39,0.00,,,-99.99,,2013-03-30 04:43:00,
2013-03-29 21:52:00,58.0,33.0,29.89,WSW,250,3.0,5.0,39,0.00,,,-99.99,,2013-03-30 04:52:00,
2013-03-29 22:02:00,58.0,32.0,29.89,WSW,250,3.0,5.0,37,0.00,,,-99.99,,2013-03-30 05:02:00,
2013-03-29 22:32:00,57.0,35.0,29.91,WSW,240,6.0,6.0,44,0.00,,,-99.99,,2013-03-30 05:32:00,
2013-03-29 22:42:00,57.0,35.0,29.91,WSW,240,6.0,6.0,44,0.00,,,-99.99,,2013-03-30 05:42:00,
2013-03-29 22:52:00,57.0,35.0,29.91,WSW,240,6.0,6.0,44,0.00,,,-99.99,,2013-03-30 05:52:00,
2013-03-29 23:02:00,58.0,34.0,29.93,SW,230,5.0,6.0,40,0.00,,,-99.99,,2013-03-30 06:02:00,
2013-03-29 23:32:00,57.0,38.0,29.91,SW,220,2.0,2.0,49,0.00,,,-99.99,,2013-03-30 06:32:00,
2013-03-29 23:42:00,57.0,38.0,29.91,SW,220,2.0,2.0,49,0.00,,,-99.99,,2013-03-30 06:42:00,
2013-03-29 23:52:00,57.0,38.0,29.91,SW,220,2.0,2.0,49,0.00,,,-99.99,,2013-03-30 06:52:00,